Capitol Logistics 1907




LFBD
Bordeaux-Mérignac Airport
Bordeaux, FR
EDDK
Cologne Bonn Airport
Cologne, DE

Activity Log

Date Flight Route Aircraft Duration
02/16/2022 CPX1907 CNA5R CNA BOLGU TUDRA SOPIL TUPID UMOGI OBAMO INRUN DEVIM MOPIL OSTAT OLPUN KENUM M170 NVO NVO24B A30F 1h 37m

Route Details

Aircraft Information
Group: European Fleet
Types: A30F,A31F,B738
Route Data
Demand: D
Distance: 481nm
Duration: 1h 50m
Recm'd Route: BOLGU TUDRA SOPIL TUPID UMOGI OBAMO INRUN DEVIM MOPIL OSTAT OLPUN KENUM
Origin Wx: LFBD 272230Z AUTO 27002KT 9999 0900 R23/P2300 R05/1200D R29/P2300 // NSC 15/13 Q1023
Dest. Wx: EDDK 272220Z AUTO 31005KT 280V340 CAVOK 10/04 Q1023 NOSIG
Notes:

Financial History
Total Freight: 15,077lbs
Average Load: 15,077lbs/flt
Fuel Used: 15,498lbs
Avg. Fuel Used: 15,498lbs/flt
Fuel Expense: $13,390
Avg. Fuel Expense: $13,390
Avg. Fuel Cost: $0.86/lbs
Total Gross Income: $30,772
Pilot Pay: $259
Total Expenses: $6,484
Total Revenue: $10,543
Average Revenue: $30,772.16